Time;durP1;ratioP1;P1;durP2;ratioP2;P2;SDS_P1;SDS_P2;PMS_P1;PMS_P2;Temp;Humidity;BMP_temperature;BMP_pressure;BME280_temperature;BME280_humidity;BME280_pressure;Samples;Min_cycle;Max_cycle;Signal;HPM_P1;HPM_P2
2021/09/23 00:01:47;;;;;;;9.40;6.73;;;11.90;99.50;;;11.68;89.88;98931.81;5108020;27;20683;-83
2021/09/23 00:04:31;;;;;;;7.90;6.50;;;11.90;99.40;;;11.63;88.91;98918.19;5129506;27;20635;-83
2021/09/23 00:07:01;;;;;;;6.93;5.80;;;11.80;99.40;;;11.59;89.53;98914.94;5124660;27;20691;-83
2021/09/23 00:09:30;;;;;;;7.87;6.20;;;11.80;99.40;;;11.57;89.74;98915.94;5126786;27;20663;-83
2021/09/23 00:11:59;;;;;;;10.10;6.50;;;11.70;99.50;;;11.54;89.43;98905.69;5122508;27;21166;-83
2021/09/23 00:14:28;;;;;;;8.23;6.27;;;11.70;99.50;;;11.55;89.54;98909.97;5089967;27;20686;-83
2021/09/23 00:16:56;;;;;;;8.70;6.83;;;11.70;99.60;;;11.55;89.48;98907.38;5106067;28;20637;-83
2021/09/23 00:19:27;;;;;;;8.73;6.40;;;11.70;99.60;;;11.52;88.66;98905.75;5124256;27;20645;-83
2021/09/23 00:21:55;;;;;;;9.60;6.87;;;11.70;99.90;;;11.47;89.57;98904.34;5107793;27;20639;-83
2021/09/23 00:24:24;;;;;;;9.00;6.27;;;11.70;99.20;;;11.40;88.08;98896.00;5100510;27;21211;-83
2021/09/23 00:26:52;;;;;;;8.10;6.47;;;11.60;99.00;;;11.38;89.44;98881.34;5102021;28;21188;-83
2021/09/23 00:29:21;;;;;;;7.70;6.67;;;11.60;99.20;;;11.35;88.69;98878.91;5108807;27;20683;-83
2021/09/23 00:31:50;;;;;;;9.07;6.47;;;11.50;99.30;;;11.36;88.75;98886.66;5115978;27;21213;-83
2021/09/23 00:34:19;;;;;;;9.30;7.23;;;11.50;99.60;;;11.37;89.97;98885.72;5120071;27;20634;-83
2021/09/23 00:36:49;;;;;;;8.43;6.40;;;11.60;99.70;;;11.35;89.05;98889.34;5106259;28;20629;-83
2021/09/23 00:39:21;;;;;;;8.67;6.80;;;11.50;99.60;;;11.36;89.89;98885.81;5104610;27;20632;-83
2021/09/23 00:41:50;;;;;;;7.63;6.17;;;11.50;99.60;;;11.36;90.56;98885.81;5092608;27;20768;-83
2021/09/23 00:44:22;;;;;;;8.10;6.73;;;11.50;99.60;;;11.34;88.83;98885.09;5100070;27;20648;-82
2021/09/23 00:46:52;;;;;;;8.30;6.07;;;11.50;99.50;;;11.33;89.47;98886.00;5126066;27;20664;-82
2021/09/23 00:49:23;;;;;;;8.43;6.20;;;11.50;99.50;;;11.31;89.02;98888.69;5125195;27;20737;-83
2021/09/23 00:51:54;;;;;;;6.57;5.83;;;11.50;99.60;;;11.29;88.91;98879.31;5105663;27;20625;-83
2021/09/23 00:54:23;;;;;;;9.23;6.67;;;11.50;99.70;;;11.25;89.99;98883.00;5122847;27;20645;-83
2021/09/23 00:56:52;;;;;;;6.73;5.77;;;11.40;99.50;;;11.26;89.73;98886.44;5090755;27;20629;-82
2021/09/23 00:59:20;;;;;;;11.90;6.73;;;11.40;99.70;;;11.26;90.11;98886.44;5093884;27;20636;-83
2021/09/23 01:01:49;;;;;;;9.50;6.40;;;11.50;99.70;;;11.23;90.41;98892.72;5090874;27;21196;-83
2021/09/23 01:04:20;;;;;;;9.30;6.40;;;11.40;99.70;;;11.20;89.40;98892.03;5116689;27;21421;-83
2021/09/23 01:06:51;;;;;;;6.83;5.90;;;11.40;99.60;;;11.17;89.08;98898.28;5077598;27;21048;-83
2021/09/23 01:09:21;;;;;;;6.63;5.93;;;11.40;99.40;;;11.13;88.61;98893.31;5122497;27;20651;-83
2021/09/23 01:11:50;;;;;;;7.17;5.53;;;11.30;99.30;;;11.11;88.79;98890.81;5103720;27;20647;-83
2021/09/23 01:14:19;;;;;;;7.33;6.23;;;11.30;99.40;;;11.07;88.70;98889.28;5122551;27;21349;-83
2021/09/23 01:16:51;;;;;;;7.83;6.57;;;11.30;99.30;;;11.07;89.46;98891.06;5101953;28;20618;-83
2021/09/23 01:19:39;;;;;;;6.53;5.83;;;11.20;99.30;;;11.05;88.79;98891.16;5111971;27;20629;-83
2021/09/23 01:22:10;;;;;;;7.07;6.07;;;11.20;99.40;;;11.04;89.60;98894.69;5102659;27;20622;-83
2021/09/23 01:25:16;;;;;;;6.03;5.43;;;11.20;99.60;;;11.06;90.27;98887.59;5101256;27;20706;-83
2021/09/23 01:27:46;;;;;;;8.03;6.40;;;11.20;99.90;;;11.02;90.59;98883.50;5100593;27;20630;-83
2021/09/23 01:30:21;;;;;;;7.37;6.10;;;11.20;99.90;;;10.96;89.82;98881.25;5103771;27;21229;-83
2021/09/23 01:32:51;;;;;;;6.90;5.57;;;11.10;99.30;;;10.90;88.13;98881.59;5109807;27;20640;-83
2021/09/23 01:35:22;;;;;;;7.33;5.70;;;11.10;98.90;;;10.89;88.97;98884.28;5106036;27;20629;-83
2021/09/23 01:37:52;;;;;;;8.50;5.80;;;11.10;99.00;;;10.89;89.06;98874.69;5104694;28;20634;-83
2021/09/23 01:40:20;;;;;;;6.83;6.03;;;11.10;99.20;;;10.89;89.31;98877.28;5095104;28;21176;-83
2021/09/23 01:42:50;;;;;;;7.20;6.00;;;11.10;99.40;;;10.89;90.34;98879.91;5107666;27;21263;-83
2021/09/23 01:45:19;;;;;;;7.10;5.93;;;11.00;99.50;;;10.87;90.39;98871.31;5089250;28;20646;-83
2021/09/23 01:47:50;;;;;;;7.60;6.63;;;11.10;99.60;;;10.89;90.32;98864.25;5104509;27;20632;-83
2021/09/23 01:50:23;;;;;;;9.70;5.90;;;11.00;99.50;;;10.82;89.97;98868.16;5086157;27;20670;-83
2021/09/23 01:52:57;;;;;;;7.63;5.80;;;11.00;99.40;;;10.78;89.69;98867.53;5102566;28;20750;-83
2021/09/23 01:55:26;;;;;;;6.40;5.40;;;11.00;99.30;;;10.74;88.62;98858.22;5101868;28;20648;-83
2021/09/23 01:57:57;;;;;;;6.97;5.90;;;10.90;98.90;;;10.71;89.02;98856.63;5105384;28;20633;-83
2021/09/23 02:00:27;;;;;;;7.17;6.13;;;10.90;98.70;;;10.70;89.00;98857.53;5089369;28;20626;-83
2021/09/23 02:02:56;;;;;;;7.17;6.20;;;10.90;99.10;;;10.71;89.82;98858.41;5094653;27;21001;-82
2021/09/23 02:05:43;;;;;;;6.70;5.93;;;10.90;99.30;;;10.73;89.17;98857.38;5107985;28;20652;-83
2021/09/23 02:08:13;;;;;;;8.33;6.33;;;10.90;99.30;;;10.73;89.78;98856.53;5115934;28;20634;-83
2021/09/23 02:10:42;;;;;;;8.27;6.40;;;10.90;99.50;;;10.72;89.41;98862.66;5123886;28;20679;-83
2021/09/23 02:13:10;;;;;;;7.37;6.03;;;10.90;99.40;;;10.72;90.18;98868.75;5096514;28;20658;-83
2021/09/23 02:15:40;;;;;;;7.00;6.13;;;10.90;99.60;;;10.71;90.47;98864.44;5111095;28;20660;-83
2021/09/23 02:18:09;;;;;;;7.23;6.30;;;10.90;99.70;;;10.71;89.66;98863.63;5107097;28;20664;-83
2021/09/23 02:20:40;;;;;;;7.80;6.10;;;10.90;99.70;;;10.70;90.21;98854.09;5107259;28;20735;-83
2021/09/23 02:23:10;;;;;;;8.00;6.67;;;10.90;99.80;;;10.69;89.60;98844.59;5123359;28;20622;-83
2021/09/23 02:25:43;;;;;;;10.70;6.30;;;10.90;99.60;;;10.69;89.62;98844.59;5107057;28;21287;-83
2021/09/23 02:28:11;;;;;;;7.10;6.40;;;10.90;99.70;;;10.69;90.03;98844.59;5088790;27;20694;-83
2021/09/23 02:30:40;;;;;;;7.83;6.03;;;10.90;99.90;;;10.69;90.18;98844.59;5097200;27;20991;-83
2021/09/23 02:33:09;;;;;;;7.33;6.33;;;10.90;99.90;;;10.64;89.56;98837.00;5131593;27;20629;-83
2021/09/23 02:35:38;;;;;;;6.70;5.40;;;10.80;99.70;;;10.58;88.91;98832.16;5110347;27;20632;-82
2021/09/23 02:38:07;;;;;;;6.80;5.00;;;10.80;99.10;;;10.52;88.33;98835.09;5124553;27;20636;-83
2021/09/23 02:40:36;;;;;;;5.70;5.00;;;10.70;98.60;;;10.42;87.59;98823.53;5095515;27;20639;-83
2021/09/23 02:43:06;;;;;;;7.40;5.70;;;10.70;98.20;;;10.40;87.86;98827.13;5112001;28;20634;-83
2021/09/23 02:45:35;;;;;;;7.10;5.73;;;10.60;98.30;;;10.41;88.42;98813.19;5094018;27;20645;-83
2021/09/23 02:48:05;;;;;;;7.13;6.33;;;10.60;98.60;;;10.43;88.83;98820.00;5089444;27;20664;-83
2021/09/23 02:50:34;;;;;;;7.40;6.20;;;10.60;99.00;;;10.44;89.82;98813.00;5113508;27;20645;-83
2021/09/23 02:53:02;;;;;;;8.03;6.60;;;10.60;99.60;;;10.45;90.81;98814.69;5110296;27;20640;-83
2021/09/23 02:55:31;;;;;;;7.80;6.53;;;10.60;99.70;;;10.45;89.93;98814.69;5124492;27;20640;-83
2021/09/23 02:58:00;;;;;;;8.37;6.60;;;10.70;99.90;;;10.45;90.20;98805.09;5124842;27;20625;-83
2021/09/23 03:00:30;;;;;;;8.80;7.03;;;10.60;99.90;;;10.45;90.02;98817.31;5106527;28;20630;-82
2021/09/23 03:02:59;;;;;;;9.27;6.70;;;10.60;99.80;;;10.44;90.33;98813.84;5114432;27;20636;-82
2021/09/23 03:05:28;;;;;;;10.40;6.70;;;10.70;99.90;;;10.40;89.65;98801.91;5110944;27;20648;-82
2021/09/23 03:07:58;;;;;;;7.90;6.70;;;10.60;99.60;;;10.36;90.42;98800.41;5111204;28;20991;-82
2021/09/23 03:10:26;;;;;;;7.53;6.73;;;10.60;99.70;;;10.38;90.04;98797.69;5098273;27;20998;-82
2021/09/23 03:12:55;;;;;;;8.60;6.67;;;10.60;99.80;;;10.35;89.01;98788.28;5109626;27;21028;-83
2021/09/23 03:15:24;;;;;;;8.23;6.90;;;10.50;99.50;;;10.29;89.62;98787.78;5108021;27;20641;-83
2021/09/23 03:17:54;;;;;;;7.10;6.37;;;10.50;99.40;;;10.26;89.22;98774.09;5098799;27;20640;-83
2021/09/23 03:20:24;;;;;;;8.80;6.47;;;10.40;99.40;;;10.22;89.94;98769.97;5096089;27;20630;-82
2021/09/23 03:22:55;;;;;;;13.13;7.33;;;10.40;99.40;;;10.24;89.52;98768.97;5111100;27;20644;-82
2021/09/23 03:25:25;;;;;;;10.40;7.27;;;10.40;99.50;;;10.21;89.94;98776.09;5114584;27;20634;-82
2021/09/23 03:27:55;;;;;;;8.83;6.90;;;10.40;99.90;;;10.19;90.23;98777.97;5115521;27;20625;-82
2021/09/23 03:30:24;;;;;;;8.50;6.80;;;10.40;99.80;;;10.15;89.79;98776.44;5131679;27;20714;-83
2021/09/23 03:32:54;;;;;;;8.80;6.50;;;10.40;99.60;;;10.10;89.24;98776.72;5124917;27;20654;-82
2021/09/23 03:35:23;;;;;;;8.50;6.60;;;10.30;99.30;;;10.09;89.40;98774.19;5089662;27;20982;-82
2021/09/23 03:37:51;;;;;;;9.77;6.93;;;10.30;99.30;;;10.09;89.85;98771.59;5110518;27;21202;-83
2021/09/23 03:40:20;;;;;;;9.40;6.90;;;10.30;99.50;;;10.06;90.03;98775.19;5108792;27;20649;-83
2021/09/23 03:42:49;;;;;;;8.60;6.90;;;10.30;99.80;;;10.06;90.24;98772.59;5115531;27;20637;-82
2021/09/23 03:45:18;;;;;;;8.83;7.10;;;10.30;99.90;;;10.05;90.76;98762.25;5106221;27;20634;-82
2021/09/23 03:47:47;;;;;;;8.63;6.50;;;10.30;99.90;;;10.07;90.34;98763.88;5117856;27;20700;-82
2021/09/23 03:50:18;;;;;;;9.87;7.00;;;10.30;99.90;;;10.07;90.09;98763.88;5109713;27;21220;-82
2021/09/23 03:52:47;;;;;;;7.67;6.33;;;10.30;99.90;;;10.03;89.64;98761.50;5108265;27;20625;-82
2021/09/23 03:55:16;;;;;;;8.33;6.30;;;10.20;99.50;;;9.96;88.88;98765.38;5109769;27;20626;-83
2021/09/23 03:57:46;;;;;;;6.43;5.83;;;10.20;99.10;;;9.90;88.80;98768.28;5109455;27;20707;-82
2021/09/23 04:00:20;;;;;;;8.03;6.50;;;10.10;98.90;;;9.87;89.34;98756.25;5104470;27;20698;-82
2021/09/23 04:02:49;;;;;;;8.50;6.50;;;10.10;99.20;;;9.88;89.08;98750.13;5088651;27;20629;-82
2021/09/23 04:05:20;;;;;;;11.73;7.50;;;10.10;99.30;;;9.89;89.88;98748.34;5110962;27;20633;-83
2021/09/23 04:07:49;;;;;;;9.37;6.70;;;10.10;99.50;;;9.91;90.26;98751.72;5116516;27;20662;-82
2021/09/23 04:10:19;;;;;;;7.60;6.70;;;10.10;99.80;;;9.90;90.35;98748.25;5086887;28;20650;-83
2021/09/23 04:12:49;;;;;;;8.50;7.00;;;10.10;99.90;;;9.90;89.91;98737.00;5112127;27;20671;-83
2021/09/23 04:15:18;;;;;;;9.13;6.87;;;10.10;99.80;;;9.87;89.57;98734.56;5097985;27;20671;-83
2021/09/23 04:17:47;;;;;;;8.60;6.80;;;10.10;99.50;;;9.85;89.83;98726.84;5104899;27;20639;-82
2021/09/23 04:20:16;;;;;;;9.63;6.90;;;10.10;99.60;;;9.86;90.03;98727.69;5089756;27;20668;-83
2021/09/23 04:22:54;;;;;;;10.03;6.77;;;10.10;99.80;;;9.84;90.17;98727.75;5095629;27;20629;-83
2021/09/23 04:25:26;;;;;;;9.37;6.93;;;10.10;99.90;;;9.84;90.47;98732.97;5112081;27;20636;-83
2021/09/23 04:27:56;;;;;;;8.50;7.00;;;10.00;99.90;;;9.82;90.64;98727.94;5112737;27;21155;-83
2021/09/23 04:30:24;;;;;;;8.40;6.23;;;10.00;99.90;;;9.78;89.41;98726.44;5091380;27;21285;-83
2021/09/23 04:32:53;;;;;;;7.07;6.13;;;10.00;99.50;;;9.72;88.90;98726.78;5099644;27;20618;-83
2021/09/23 04:35:22;;;;;;;10.03;7.23;;;10.00;99.10;;;9.71;88.88;98725.09;5113039;27;20707;-83
2021/09/23 04:37:51;;;;;;;9.70;7.17;;;9.90;99.90;;;9.69;89.28;98711.31;5111370;27;21172;-82
2021/09/23 04:40:21;;;;;;;8.93;7.20;;;9.90;99.90;;;9.68;89.24;98705.28;5090854;27;20629;-82
2021/09/23 04:42:51;;;;;;;9.00;7.40;;;9.90;99.90;;;9.68;89.94;98704.41;5101842;27;20633;-83
2021/09/23 04:45:20;;;;;;;9.37;7.37;;;9.90;99.90;;;9.66;90.44;98699.28;5092894;27;20618;-83
2021/09/23 04:47:49;;;;;;;8.93;7.50;;;9.90;99.90;;;9.66;90.04;98704.50;5097513;27;20629;-83
2021/09/23 04:50:18;;;;;;;10.13;7.03;;;9.90;99.90;;;9.68;90.15;98702.66;5108297;27;20637;-83
2021/09/23 04:52:47;;;;;;;10.43;7.07;;;9.90;99.90;;;9.66;90.24;98701.91;5096176;27;20664;-83
2021/09/23 04:55:15;;;;;;;8.30;6.10;;;9.90;99.90;;;9.65;90.14;98700.22;5128350;27;20630;-83
2021/09/23 04:57:45;;;;;;;10.00;7.20;;;9.90;99.90;;;9.64;90.26;98690.72;5106854;27;20637;-83
2021/09/23 05:00:16;;;;;;;8.77;6.90;;;9.80;99.90;;;9.62;90.54;98699.53;5109197;28;21230;-83
2021/09/23 05:02:52;;;;;;;11.43;8.57;;;9.80;99.90;;;9.59;89.75;98697.09;5090750;27;21212;-82
2021/09/23 05:05:21;;;;;;;12.00;7.23;;;9.80;99.90;;;9.57;89.76;98697.19;5128906;27;20672;-82
2021/09/23 05:07:50;;;;;;;10.90;7.00;;;9.80;99.90;;;9.56;89.48;98699.88;5101141;27;20850;-82
2021/09/23 05:10:18;;;;;;;13.10;8.20;;;9.80;99.90;;;9.56;89.98;98697.28;5095789;28;21148;-82
2021/09/23 05:12:49;;;;;;;13.30;6.77;;;9.70;99.90;;;9.55;90.33;98695.63;5108559;27;20661;-82
2021/09/23 05:15:17;;;;;;;10.63;6.50;;;9.80;99.90;;;9.52;89.12;98694.00;5123764;27;20613;-83
2021/09/23 05:17:48;;;;;;;8.87;6.70;;;9.70;99.90;;;9.52;89.51;98680.97;5125581;27;20745;-83
2021/09/23 05:20:17;;;;;;;9.50;7.80;;;9.70;99.90;;;9.50;89.84;98689.78;5110322;27;20621;-82
2021/09/23 05:22:46;;;;;;;11.47;8.30;;;9.70;99.90;;;9.52;89.75;98686.19;5113673;27;20685;-82
2021/09/23 05:25:15;;;;;;;8.77;6.57;;;9.70;99.90;;;9.51;90.00;98687.09;5105059;27;20730;-82
2021/09/23 05:27:43;;;;;;;8.03;6.70;;;9.70;99.90;;;9.50;89.72;98681.97;5105056;27;20626;-82
2021/09/23 05:30:15;;;;;;;8.47;6.77;;;9.70;99.90;;;9.52;90.11;98682.75;5123633;27;20640;-82
2021/09/23 05:32:44;;;;;;;9.97;7.10;;;9.70;99.90;;;9.65;90.11;98669.00;5104741;27;20672;-82
2021/09/23 05:35:13;;;;;;;10.03;6.80;;;9.80;99.90;;;9.79;88.97;98662.97;5126671;27;20656;-82
2021/09/23 05:37:42;;;;;;;10.50;7.67;;;9.90;99.90;;;9.94;89.60;98656.03;5128049;27;20619;-83
2021/09/23 05:40:13;;;;;;;10.20;6.90;;;10.00;99.90;;;10.08;88.82;98663.88;5114606;27;20629;-82
2021/09/23 05:42:42;;;;;;;8.80;6.20;;;10.20;99.70;;;10.19;87.57;98660.66;5104192;27;20636;-83
2021/09/23 05:45:15;;;;;;;9.40;6.77;;;10.20;98.90;;;10.30;86.87;98653.91;5110155;27;20630;-83
2021/09/23 05:47:44;;;;;;;9.37;6.23;;;10.40;98.80;;;10.45;87.25;98648.63;5097631;28;20640;-83
2021/09/23 05:50:15;;;;;;;8.50;6.90;;;10.50;99.40;;;10.60;87.22;98662.53;5111178;28;20687;-83
2021/09/23 05:52:44;;;;;;;9.33;6.83;;;10.60;99.40;;;10.77;88.01;98650.16;5094882;27;20642;-83
2021/09/23 05:55:14;;;;;;;10.30;6.23;;;10.80;99.40;;;10.95;88.22;98647.28;5105300;27;20623;-83
2021/09/23 05:57:43;;;;;;;9.10;7.03;;;11.00;99.20;;;11.12;86.58;98659.31;5111264;28;20617;-83
2021/09/23 06:00:16;;;;;;;9.60;6.50;;;11.10;99.10;;;11.21;85.74;98667.41;5116478;27;20621;-83
2021/09/23 06:02:46;;;;;;;10.10;6.33;;;11.20;98.40;;;11.29;86.01;98684.28;5102749;27;20658;-83
2021/09/23 06:05:17;;;;;;;10.00;7.07;;;11.30;98.00;;;11.40;85.87;98689.66;5100675;28;20648;-83
2021/09/23 06:07:47;;;;;;;8.20;6.40;;;11.40;97.80;;;11.50;84.49;98685.59;5108606;28;20665;-83
2021/09/23 06:10:16;;;;;;;8.13;6.80;;;11.50;97.00;;;11.65;84.48;98683.78;5111394;28;20625;-83
2021/09/23 06:12:45;;;;;;;9.70;7.50;;;11.60;97.10;;;11.81;83.74;98685.34;5108567;28;21246;-83
2021/09/23 06:15:15;;;;;;;8.30;6.57;;;11.80;97.40;;;11.96;84.71;98694.81;5119155;28;20617;-83
2021/09/23 06:17:46;;;;;;;9.63;7.00;;;11.90;97.00;;;12.11;84.47;98705.13;5129206;28;20733;-83
2021/09/23 06:20:18;;;;;;;9.67;7.33;;;12.10;97.20;;;12.26;82.22;98704.13;5096356;28;20628;-83
2021/09/23 06:22:51;;;;;;;8.83;6.80;;;12.20;96.80;;;12.42;82.16;98691.72;5108783;28;20610;-83
2021/09/23 06:25:20;;;;;;;9.33;7.10;;;12.30;96.50;;;12.58;82.43;98689.75;5115364;28;21230;-83
2021/09/23 06:27:49;;;;;;;9.77;7.57;;;12.50;96.30;;;12.73;81.97;98689.56;5106923;28;20637;-83
2021/09/23 06:30:20;;;;;;;8.80;7.07;;;12.60;96.60;;;12.91;82.57;98673.47;5123166;28;21240;-83
2021/09/23 06:32:49;;;;;;;8.80;7.33;;;12.80;96.30;;;13.05;82.18;98676.00;5117460;28;20645;-83
2021/09/23 06:35:18;;;;;;;9.10;7.30;;;12.90;96.00;;;13.25;81.55;98675.47;5090202;28;21206;-82
2021/09/23 06:37:47;;;;;;;10.67;7.07;;;13.10;96.20;;;13.47;81.23;98683.47;5112183;27;20755;-83
2021/09/23 06:40:17;;;;;;;7.40;6.60;;;13.30;95.80;;;13.64;81.65;98676.94;5099181;28;20645;-83
2021/09/23 06:42:48;;;;;;;9.40;6.90;;;13.50;96.10;;;13.87;82.19;98680.53;5085540;28;20640;-83
2021/09/23 06:45:17;;;;;;;9.93;7.17;;;13.70;96.50;;;13.97;80.28;98677.16;5113956;28;20641;-83
2021/09/23 06:47:47;;;;;;;8.70;7.13;;;13.80;95.30;;;13.99;79.33;98675.25;5111918;28;20629;-83
2021/09/23 06:50:16;;;;;;;12.30;6.90;;;13.80;94.70;;;14.09;79.45;98676.28;5078847;28;20722;-83
2021/09/23 06:52:44;;;;;;;10.07;7.13;;;13.90;95.00;;;14.20;80.41;98666.66;5100352;28;20654;-83
2021/09/23 06:55:14;;;;;;;10.00;7.00;;;14.00;95.20;;;14.44;80.44;98669.28;5108262;28;21038;-84
2021/09/23 06:57:43;;;;;;;9.30;7.20;;;14.20;95.60;;;14.63;79.56;98667.78;5091026;28;21168;-84
2021/09/23 07:00:30;;;;;;;10.47;7.27;;;14.40;95.50;;;14.79;77.95;98665.66;5119871;28;20631;-84
2021/09/23 07:03:23;;;;;;;10.10;7.03;;;14.60;94.60;;;14.84;79.55;98668.78;5119162;28;20720;-84
2021/09/23 07:06:05;;;;;;;8.53;6.37;;;14.60;94.60;;;15.05;79.69;98662.75;5098760;28;20669;-84
2021/09/23 07:08:35;;;;;;;10.80;7.33;;;14.90;95.00;;;15.36;80.64;98670.75;5086353;27;20634;-83
2021/09/23 07:11:08;;;;;;;13.93;7.07;;;15.10;95.80;;;15.58;80.20;98668.13;5098886;28;21222;-84
2021/09/23 07:13:37;;;;;;;10.97;7.20;;;15.40;95.20;;;15.59;76.16;98669.78;5075416;27;20676;-84
2021/09/23 07:16:06;;;;;;;11.27;7.10;;;15.40;93.40;;;15.70;78.85;98668.00;5114823;27;20667;-84
2021/09/23 07:18:36;;;;;;;9.97;7.20;;;15.50;94.30;;;15.91;77.18;98661.03;5086563;27;20664;-83
2021/09/23 07:21:05;;;;;;;10.90;7.10;;;15.70;94.30;;;16.08;78.14;98665.75;5100439;27;20633;-83
2021/09/23 07:23:34;;;;;;;8.57;6.80;;;15.90;93.80;;;16.21;77.77;98666.44;5098038;27;21263;-84
2021/09/23 07:26:03;;;;;;;8.63;6.70;;;16.00;94.00;;;16.42;77.31;98669.94;5088876;27;20633;-84
2021/09/23 07:28:32;;;;;;;10.07;7.30;;;16.20;94.00;;;16.54;75.35;98672.44;5102969;27;20640;-83
2021/09/23 07:31:02;;;;;;;10.23;7.10;;;16.40;93.00;;;16.61;74.25;98684.09;5107822;27;20625;-84
2021/09/23 07:33:31;;;;;;;9.83;7.00;;;16.50;92.50;;;16.75;76.49;98689.09;5100770;27;20725;-84
2021/09/23 07:36:01;;;;;;;7.80;6.77;;;16.60;92.60;;;16.82;74.07;98688.41;5104145;27;20698;-84
2021/09/23 07:38:30;;;;;;;15.53;6.63;;;16.70;91.90;;;16.93;74.96;98688.38;5117983;27;20629;-84
2021/09/23 07:40:59;;;;;;;8.53;6.50;;;16.70;92.30;;;17.13;76.11;98690.16;5101008;27;20640;-84
2021/09/23 07:43:27;;;;;;;8.00;7.00;;;16.90;92.50;;;17.24;73.84;98692.75;5113016;27;20669;-84
2021/09/23 07:45:56;;;;;;;8.50;6.60;;;17.00;91.90;;;17.32;75.23;98688.50;5085943;27;20625;-84
2021/09/23 07:48:25;;;;;;;11.60;6.73;;;17.10;92.30;;;17.51;74.85;98699.97;5084200;27;20626;-84
2021/09/23 07:50:54;;;;;;;9.20;7.23;;;17.30;92.20;;;17.57;74.50;98696.78;5096515;27;20633;-84
2021/09/23 07:53:25;;;;;;;8.07;6.10;;;17.40;91.90;;;17.82;75.32;98703.41;5105437;27;20657;-84
2021/09/23 07:55:54;;;;;;;10.20;7.00;;;17.60;92.50;;;17.95;73.81;98707.47;5085757;27;20978;-84
2021/09/23 07:58:37;;;;;;;9.43;6.97;;;17.70;91.50;;;18.04;75.10;98707.50;5098401;27;20641;-84
2021/09/23 08:01:22;;;;;;;7.10;6.40;;;17.80;92.30;;;18.24;74.36;98705.78;5111572;27;20683;-84
2021/09/23 08:03:55;;;;;;;8.30;6.93;;;18.00;91.90;;;18.41;76.17;98704.09;5095834;27;20625;-83
2021/09/23 08:06:25;;;;;;;10.40;6.07;;;18.10;93.20;;;18.38;72.51;98697.44;5131895;27;20718;-83
2021/09/23 08:08:56;;;;;;;7.27;6.13;;;18.20;90.80;;;18.32;73.47;98700.63;5117037;27;20645;-83
2021/09/23 08:11:25;;;;;;;7.70;6.17;;;18.10;91.00;;;18.50;73.83;98710.38;5080047;27;20634;-83
2021/09/23 08:14:02;;;;;;;8.20;6.90;;;18.30;91.60;;;18.72;74.99;98708.31;5100652;27;20754;-83
2021/09/23 08:16:30;;;;;;;8.60;7.00;;;18.40;92.40;;;18.81;73.32;98703.97;5099928;27;20710;-83
2021/09/23 08:19:16;;;;;;;9.57;6.67;;;18.60;91.10;;;18.95;73.26;98699.09;5091723;27;21260;-84
2021/09/23 08:22:12;;;;;;;10.03;7.73;;;18.70;91.30;;;19.13;72.50;98685.03;5080322;27;21252;-84
2021/09/23 08:24:43;;;;;;;10.40;6.80;;;18.90;91.20;;;19.24;73.02;98684.03;5096574;27;20643;-83
2021/09/23 08:27:11;;;;;;;9.20;6.20;;;19.00;90.70;;;19.40;71.85;98690.38;5114965;27;20623;-83
2021/09/23 08:29:43;;;;;;;9.30;6.87;;;19.20;91.00;;;19.52;72.83;98687.41;5096690;27;21218;-83
2021/09/23 08:32:17;;;;;;;7.40;6.33;;;19.30;90.40;;;19.59;69.51;98688.50;5093859;27;20687;-83
2021/09/23 08:34:48;;;;;;;8.57;7.10;;;19.40;88.60;;;19.75;73.23;98680.75;5080656;27;20660;-83
2021/09/23 08:37:17;;;;;;;8.50;7.30;;;19.60;91.00;;;19.86;70.81;98678.78;5098005;27;20637;-84
2021/09/23 08:39:50;;;;;;;8.10;6.70;;;19.60;88.80;;;19.94;71.42;98676.22;5118018;27;20618;-84
2021/09/23 08:42:19;;;;;;;9.47;6.50;;;19.70;88.80;;;20.11;72.02;98683.38;5105404;27;20638;-84
2021/09/23 08:44:50;;;;;;;8.30;6.93;;;19.90;89.70;;;20.29;72.57;98688.69;5115192;27;20638;-84
2021/09/23 08:47:19;;;;;;;7.83;6.67;;;20.10;90.00;;;20.38;70.08;98681.50;5103278;27;20658;-84
2021/09/23 08:49:47;;;;;;;9.10;6.37;;;20.20;87.90;;;20.51;68.58;98678.50;5082524;27;21243;-84
2021/09/23 08:52:16;;;;;;;8.03;6.63;;;20.30;86.50;;;20.65;69.35;98689.38;5119179;27;20629;-84
2021/09/23 08:54:46;;;;;;;12.53;6.93;;;20.50;87.20;;;20.73;68.86;98686.81;5091627;28;20658;-84
2021/09/23 08:57:16;;;;;;;8.33;6.93;;;20.50;85.50;;;20.80;68.55;98685.25;5097177;27;20640;-84
2021/09/23 08:59:45;;;;;;;9.63;7.50;;;20.60;85.90;;;20.83;67.83;98672.50;5114591;27;21215;-84
2021/09/23 09:02:26;;;;;;;8.27;6.80;;;20.60;84.40;;;20.90;67.48;98662.13;5089151;27;20694;-84
2021/09/23 09:05:18;;;;;;;8.90;7.53;;;20.70;84.00;;;20.93;67.94;98661.81;5119457;27;20641;-84
2021/09/23 09:08:21;;;;;;;8.80;6.80;;;20.80;84.50;;;20.90;66.58;98656.81;5013214;27;21418;-84
2021/09/23 09:11:02;;;;;;;12.27;7.50;;;20.70;81.70;;;20.90;65.99;98656.81;5101622;27;20629;-84
2021/09/23 09:13:38;;;;;;;8.77;6.87;;;20.70;81.50;;;21.02;68.00;98643.13;5115564;27;20686;-84
2021/09/23 09:16:09;;;;;;;8.80;7.00;;;20.90;83.00;;;21.13;67.00;98647.34;5106612;27;21002;-84
2021/09/23 09:18:39;;;;;;;8.80;6.73;;;21.00;82.70;;;21.26;67.64;98648.59;5099550;27;20632;-84
2021/09/23 09:21:11;;;;;;;8.83;6.50;;;21.10;84.00;;;21.34;66.30;98643.34;5099841;27;20701;-85
2021/09/23 09:23:45;;;;;;;8.87;6.10;;;21.10;82.30;;;21.43;66.47;98631.78;5096937;27;20621;-84
2021/09/23 09:26:23;;;;;;;8.73;6.60;;;21.20;81.20;;;21.48;65.30;98629.50;5099367;27;20741;-84
2021/09/23 09:28:55;;;;;;;6.60;5.93;;;21.30;79.50;;;21.55;67.02;98623.38;5100196;27;20628;-84
2021/09/23 09:31:25;;;;;;;7.70;6.37;;;21.40;82.00;;;21.59;65.81;98618.59;5098698;27;20641;-84
2021/09/23 09:33:56;;;;;;;8.90;6.60;;;21.40;81.50;;;21.50;63.82;98620.38;5096027;27;20665;-84
2021/09/23 09:36:32;;;;;;;8.93;5.40;;;21.30;77.70;;;21.50;66.80;98612.44;5098034;27;20625;-84
2021/09/23 09:39:05;;;;;;;6.60;5.50;;;21.30;80.80;;;21.57;65.14;98605.47;5114340;27;20729;-84
2021/09/23 09:41:37;;;;;;;7.17;5.17;;;21.40;79.80;;;21.59;65.21;98597.34;5082843;27;20644;-84
2021/09/23 09:44:11;;;;;;;7.30;4.73;;;21.40;78.60;;;21.68;64.79;98591.91;5105234;27;21478;-84
2021/09/23 09:46:46;;;;;;;5.50;4.97;;;21.50;79.50;;;21.77;65.40;98605.06;5088451;27;20763;-84
2021/09/23 09:49:16;;;;;;;7.27;5.27;;;21.60;79.70;;;21.75;62.67;98613.34;5082245;27;20632;-84
2021/09/23 09:51:47;;;;;;;6.93;5.67;;;21.60;75.70;;;21.66;62.55;98598.38;5091536;27;20634;-84
2021/09/23 09:54:18;;;;;;;9.03;5.60;;;21.50;74.90;;;21.63;62.82;98596.84;5077077;27;20661;-84
2021/09/23 09:56:57;;;;;;;6.30;5.53;;;21.40;75.30;;;21.66;62.57;98595.72;5107667;27;20620;-84
2021/09/23 09:59:27;;;;;;;8.93;5.70;;;21.50;74.70;;;21.63;63.82;98594.19;5098369;28;21176;-83
2021/09/23 10:01:59;;;;;;;10.20;5.30;;;21.50;75.50;;;21.64;63.09;98587.91;5094941;28;20618;-83
2021/09/23 10:04:32;;;;;;;5.30;4.53;;;21.40;75.40;;;21.81;64.71;98576.34;5113007;27;20636;-83
2021/09/23 10:07:04;;;;;;;5.60;4.57;;;21.60;77.80;;;21.85;62.65;98575.03;5100171;28;20673;-83
2021/09/23 10:09:39;;;;;;;8.33;5.57;;;21.70;74.30;;;22.02;64.89;98574.06;5078138;28;20645;-83
2021/09/23 10:12:09;;;;;;;7.67;3.93;;;21.80;77.60;;;22.15;64.41;98577.09;5100188;28;21141;-84
2021/09/23 10:14:43;;;;;;;4.30;3.87;;;21.90;77.10;;;22.20;63.33;98582.72;5099626;28;21180;-83
2021/09/23 10:17:13;;;;;;;6.93;5.20;;;22.00;74.60;;;22.21;64.01;98569.31;5092674;28;20625;-83
2021/09/23 10:19:43;;;;;;;4.90;3.87;;;22.00;75.90;;;22.20;64.94;98580.06;5083007;28;20628;-83
2021/09/23 10:22:16;;;;;;;4.40;3.87;;;22.00;76.90;;;22.26;64.62;98581.09;5090270;28;20737;-84
2021/09/23 10:24:48;;;;;;;5.00;4.00;;;22.00;76.90;;;22.28;61.77;98579.13;5098212;28;20628;-83
2021/09/23 10:30:07;;;;;;;5.30;3.70;;;22.10;73.10;;;22.37;63.20;98587.91;5080534;28;20806;-83
2021/09/23 10:32:37;;;;;;;7.63;5.27;;;22.20;74.70;;;22.37;63.66;98577.28;5100927;28;21028;-84
2021/09/23 10:35:06;;;;;;;5.40;3.63;;;22.20;75.60;;;22.44;63.59;98573.78;5090650;28;20649;-83
2021/09/23 10:37:36;;;;;;;5.47;3.90;;;22.30;74.70;;;22.49;62.19;98574.13;5095122;28;20627;-83
2021/09/23 10:40:07;;;;;;;5.70;4.60;;;22.30;73.30;;;22.43;63.99;98574.81;5099395;28;20743;-84